Ana Sayfa
METAR-TAF:

METAR-TAF

Havaalanları :

Changsha, Çin

Enlem: 28-11N, Boylam: 113-13E, yükseklik: 66 m

Güncel hava durumu gözlemi

Rapor saat 11:00 UTC de 50 dakika önce yapıldı.
Rüzgar güney/güneydoğudan 6 kt
Sıcaklık 28°C
Nem 84%
Basınç 1001 hPa
Görüş mesafesi 10 km veya daha fazla
5000 ft yükseklikte çok bulutlu

METAR: ZGHA 181100Z 15003MPS 9999 OVC050 28/25 Q1001 NOSIG

Saat: 19:50 (11:50 UTC)

Tahmin

Rapor saat 09:02 UTC de 2 saat ve 48 dakika önce yapıldı.
Ayın 18'si saat 12 UTC'den ayın 19'si saat 12 UTC'ye kadar geçerli Tahmin
Rüzgar güneydan 8 kt
Görüş mesafesi: 3500 m
2000 ft yükseklikte parçalı çok bulutlu
5000 ft yükseklikte çok bulutlu
hafif yağmur, Pus
Geçici
ayın 18'si saat 16 UTC'den ayın 18'si saat 22 UTC'ye kadar
4000 ft yükseklikte az bulutlu, Kümülonimbus.
5000 ft yükseklikte parçalı çok bulutlu
sağanak yağmurlar,

TAF: ZGHA 180902Z 1812/1912 18004MPS 3500 -RA BR BKN020 OVC050 TX28/1907Z TN24/1822Z TEMPO 1816/1822 SHRA FEW040CB BKN050

4.000'den fazla havaalanı için hava durumu gözlemleri ve tahminleri (METAR ve TAF raporları).

Kullanılabilir istasyonlar harita üzerinde sarı ve kırmızı noktalarla gösterilir.

İstasyonun adını görmek için fareyi noktanın üzerinde gezdirin.

Sonrasında hava gözlem ve tahminlerini görmek için tıklayın.

Haritayı değiştirmek için: yaklaştırmak için siyah artı işaretli yeşil düğmeye ve uzaklaştırmak için de eksi işaretli düğmeye hızla tıklayın; bitişik haritalar için yeşil okları kullanın.


METAR-TAF: